Key West, FL (33040)

3:08 AM EDT on August 26, 2016 (GMT -0400)
Key West Naval Air Station | | Change Station

Elev 7 ft 24.58 °N, 81.69 °W | Updated 15 minutes ago

Thunderstorm
Thunderstorm
2 °F
Feels Like -15 °F
N
12
Wind Variable Wind from ENE

Today
High -- | Low -- °F
--% Chance of Precip.
Yesterday
High -- | Low -- °F
Precip. -- in
Pressure 29.91 in
Visibility 10.0 miles
Clouds Scattered Clouds 2200 ft
Mostly Cloudy 4900 ft
Overcast 8500 ft
Windchill -15 °F
Dew Point 2 °F
Humidity 100%
Rainfall 0.02 in
Snow Depth Not available.
7:05 AM 7:50 PM
Last Quarter, 37% visible
METAR KNQX 260653Z AUTO 06010KT 10SM TSUP SCT022 BKN049 OVC085 M17/M17 A2991 RMK AO2 UPB41 TSE15B32 SLP128 P0002 T11671167 $
Pressure 29.91 in
Visibility 10.0 miles
Clouds Scattered Clouds 2200 ft
Mostly Cloudy 4900 ft
Overcast 8500 ft
Windchill -15 °F
Dew Point 2 °F
Humidity 100%
Rainfall 0.02 in
Snow Depth Not available.
7:05 AM 7:50 PM
Last Quarter, 37% visible
METAR KNQX 260653Z AUTO 06010KT 10SM TSUP SCT022 BKN049 OVC085 M17/M17 A2991 RMK AO2 UPB41 TSE15B32 SLP128 P0002 T11671167 $

10-Day Weather Forecast

Almanac

Astronomy

Aug. 26, 2016 Rise Set
Actual Time
Civil Twilight
Nautical Twilight
Astronomical Twilight
Moon
Length of Visible Light
Length of Day
Tomorrow will be .
, % of the Moon is Illuminated

Today's Extremes

State Highs State Lows

Community

WunderPhotos

Upload Photos

1,935,063 photos uploaded!

WunderBlog® & News

Nearby

Air Quality

  Air Quality AQ Index Pollutant
Not available.

Snow Depth

Station Depth Elevation

Earthquake Activity

City Distance Mag. Time & Date
Minimum magnitude displayed is 2.5.

Coastal Water Temperatures

Place Temperature

Stations

Nearby Weather Stations

Station Location Temp. Windchill Dew Point Humidity Wind Precip. Elev Updated Type
                   

Watches & Warnings

There are currently no watches in effect.